createdAt,value
2023-01-01T00:02:23.805Z,95588.88
2023-01-01T00:04:50.517Z,95581.94
2023-01-01T00:07:17.103Z,95594.13
2023-01-01T00:10:02.606Z,95598.00
2023-01-01T00:12:29.319Z,95606.03
2023-01-01T00:14:55.954Z,95596.56
2023-01-01T00:17:22.477Z,95606.94
2023-01-01T00:19:49.222Z,95623.44
2023-01-01T00:22:52.710Z,95624.09
2023-01-01T00:25:02.485Z,95622.28
2023-01-01T00:27:29.064Z,95618.88
2023-01-01T00:29:55.633Z,95629.41
2023-01-01T00:32:22.966Z,95625.84
2023-01-01T00:34:50.472Z,95622.78
2023-01-01T00:37:18.483Z,95624.19
2023-01-01T00:39:45.447Z,95625.03
2023-01-01T00:42:12.137Z,95625.63
2023-01-01T00:44:38.828Z,95629.22
2023-01-01T00:47:05.596Z,95614.94
2023-01-01T00:49:32.251Z,95615.22
2023-01-01T00:51:58.817Z,95609.78
2023-01-01T00:54:25.704Z,95610.88
2023-01-01T00:56:52.405Z,95611.97
2023-01-01T00:59:20.635Z,95611.97
2023-01-01T01:01:50.643Z,95605.16
2023-01-01T01:04:17.320Z,95608.38
2023-01-01T01:06:44.127Z,95608.88
2023-01-01T01:09:10.715Z,95602.75
2023-01-01T01:11:37.356Z,95618.09
2023-01-01T01:14:03.985Z,95614.81
2023-01-01T01:16:33.154Z,95618.44
2023-01-01T01:19:02.110Z,95611.47
2023-01-01T01:21:30.730Z,95618.44
2023-01-01T01:24:01.539Z,95620.25
2023-01-01T01:26:31.343Z,95616.38
2023-01-01T01:28:59.796Z,95629.63
2023-01-01T01:31:32.066Z,95628.03
2023-01-01T01:33:59.216Z,95617.03
2023-01-01T01:36:26.913Z,95632.19
2023-01-01T01:38:54.277Z,95636.22
2023-01-01T01:41:28.762Z,95643.03
2023-01-01T01:44:02.225Z,95648.34
2023-01-01T01:46:42.968Z,95646.94
2023-01-01T01:49:16.676Z,95652.13
2023-01-01T01:51:44.333Z,95655.84
2023-01-01T01:54:17.549Z,95655.53
2023-01-01T01:56:55.018Z,95650.91
2023-01-01T01:59:25.102Z,95659.94
2023-01-01T02:01:52.907Z,95661.88
2023-01-01T02:04:19.980Z,95659.31
2023-01-01T02:06:47.365Z,95651.56
2023-01-01T02:09:14.220Z,95650.09
2023-01-01T02:11:40.952Z,95656.53
2023-01-01T02:14:07.652Z,95658.66
2023-01-01T02:16:45.775Z,95660.47
2023-01-01T02:19:55.147Z,95654.16
2023-01-01T02:22:36.783Z,95642.00
2023-01-01T02:25:35.900Z,95651.19
2023-01-01T02:28:46.569Z,95656.81
2023-01-01T02:31:23.136Z,95648.13
2023-01-01T02:33:53.459Z,95649.59
2023-01-01T02:36:22.154Z,95651.19
2023-01-01T02:38:53.181Z,95654.13
2023-01-01T02:41:24.670Z,95651.09
2023-01-01T02:43:52.003Z,95660.94
2023-01-01T02:48:49.407Z,95661.66
2023-01-01T02:51:43.281Z,95664.41
2023-01-01T02:54:18.851Z,95660.69
2023-01-01T02:57:00.474Z,95662.31
2023-01-01T02:59:45.545Z,95665.69
2023-01-01T03:02:22.493Z,95664.72
2023-01-01T03:05:08.038Z,95674.75
2023-01-01T03:07:41.803Z,95670.22
2023-01-01T03:10:19.240Z,95661.44
2023-01-01T03:13:08.980Z,95666.44
2023-01-01T03:15:38.285Z,95661.75
2023-01-01T03:18:13.729Z,95658.72
2023-01-01T03:20:44.054Z,95655.97
2023-01-01T03:23:17.864Z,95670.50
2023-01-01T03:25:49.888Z,95668.13
2023-01-01T03:28:22.661Z,95671.53
2023-01-01T03:30:52.681Z,95662.47
2023-01-01T03:33:22.943Z,95680.88
2023-01-01T03:35:55.890Z,95673.56
2023-01-01T03:38:50.502Z,95664.34
2023-01-01T03:41:20.681Z,95682.91
2023-01-01T03:44:04.022Z,95667.72
2023-01-01T03:46:33.566Z,95665.78
2023-01-01T03:49:04.232Z,95658.81
2023-01-01T03:51:53.015Z,95676.09
2023-01-01T03:54:38.026Z,95676.69
2023-01-01T03:57:04.567Z,95670.91
2023-01-01T03:59:40.434Z,95668.16
2023-01-01T04:02:11.417Z,95659.63
2023-01-01T04:04:38.712Z,95657.88
2023-01-01T04:07:14.936Z,95658.53
2023-01-01T04:09:47.930Z,95663.88
2023-01-01T04:12:17.216Z,95662.06
2023-01-01T04:14:44.011Z,95669.84
2023-01-01T04:17:12.465Z,95669.47
2023-01-01T04:19:39.447Z,95672.50
2023-01-01T04:22:06.500Z,95674.59
2023-01-01T04:24:33.073Z,95684.06
2023-01-01T04:26:59.635Z,95663.56
2023-01-01T04:29:26.401Z,95665.41
2023-01-01T04:31:53.060Z,95672.03
2023-01-01T04:34:19.716Z,95674.78
2023-01-01T04:36:46.506Z,95675.25
2023-01-01T04:39:13.117Z,95680.75
2023-01-01T04:41:40.959Z,95667.00
2023-01-01T04:44:08.358Z,95687.06
2023-01-01T04:46:34.919Z,95683.78
2023-01-01T04:49:01.679Z,95690.09
2023-01-01T04:51:28.285Z,95693.97
2023-01-01T04:53:54.982Z,95691.69
2023-01-01T04:56:22.578Z,95700.75
2023-01-01T04:58:50.038Z,95690.22
2023-01-01T05:01:25.671Z,95700.88
2023-01-01T05:03:52.902Z,95692.97
2023-01-01T05:06:19.880Z,95719.31
2023-01-01T05:08:49.688Z,95714.31
2023-01-01T05:11:18.893Z,95708.47
2023-01-01T05:13:48.194Z,95726.09
2023-01-01T05:16:17.242Z,95718.00
2023-01-01T05:18:45.066Z,95717.03
2023-01-01T05:21:14.811Z,95729.00
2023-01-01T05:23:42.015Z,95733.84
2023-01-01T05:26:20.403Z,95735.94
2023-01-01T05:28:48.095Z,95750.03
2023-01-01T05:31:19.427Z,95747.69
2023-01-01T05:33:46.801Z,95754.81
2023-01-01T05:36:19.429Z,95759.97
2023-01-01T05:38:46.979Z,95755.47
2023-01-01T05:41:15.502Z,95764.19
2023-01-01T05:43:42.886Z,95763.53
2023-01-01T05:46:18.265Z,95763.38
2023-01-01T05:48:45.284Z,95764.13
2023-01-01T05:51:14.091Z,95761.72
2023-01-01T05:53:40.988Z,95752.00
2023-01-01T05:56:07.841Z,95752.38
2023-01-01T05:58:35.740Z,95756.56
2023-01-01T06:01:38.784Z,95738.31
2023-01-01T06:04:10.000Z,95741.22
2023-01-01T06:06:36.679Z,95744.47
2023-01-01T06:09:04.903Z,95751.06
2023-01-01T06:11:32.360Z,95754.66
2023-01-01T06:14:00.338Z,95746.22
2023-01-01T06:16:28.558Z,95752.91
2023-01-01T06:18:55.261Z,95762.78
2023-01-01T06:21:24.583Z,95770.88
2023-01-01T06:23:51.724Z,95775.22
2023-01-01T06:26:21.595Z,95777.69
2023-01-01T06:28:49.084Z,95789.81
2023-01-01T06:31:18.294Z,95773.97
2023-01-01T06:33:45.416Z,95786.59
2023-01-01T06:36:14.400Z,95788.84
2023-01-01T06:38:44.435Z,95779.69
2023-01-01T06:41:22.375Z,95786.34
2023-01-01T06:43:49.226Z,95795.72
2023-01-01T06:46:19.885Z,95790.22
2023-01-01T06:48:48.623Z,95799.25
2023-01-01T06:51:21.014Z,95799.75
2023-01-01T06:53:51.741Z,95804.75
2023-01-01T06:56:18.733Z,95817.03
2023-01-01T06:58:45.613Z,95820.91
2023-01-01T07:01:17.962Z,95825.91
2023-01-01T07:03:49.888Z,95834.63
2023-01-01T07:06:16.437Z,95845.13
2023-01-01T07:08:43.041Z,95845.94
2023-01-01T07:11:09.772Z,95844.81
2023-01-01T07:13:36.293Z,95847.25
2023-01-01T07:16:08.335Z,95843.69
2023-01-01T07:18:39.149Z,95846.44
2023-01-01T07:21:07.787Z,95839.31
2023-01-01T07:23:35.651Z,95850.47
2023-01-01T07:26:02.265Z,95858.53
2023-01-01T07:28:28.816Z,95856.75
2023-01-01T07:30:55.468Z,95876.59
2023-01-01T07:33:24.183Z,95881.59
2023-01-01T07:35:50.961Z,95889.81
2023-01-01T07:38:17.562Z,95894.16
2023-01-01T07:40:44.223Z,95896.44
2023-01-01T07:43:12.668Z,95896.91
2023-01-01T07:45:39.321Z,95891.72
2023-01-01T07:48:06.153Z,95894.47
2023-01-01T08:12:59.719Z,95921.03
2023-01-01T08:15:26.355Z,95919.72
2023-01-01T08:17:58.013Z,95919.91
2023-01-01T08:20:25.715Z,95900.38
2023-01-01T08:22:52.324Z,95913.44
2023-01-01T08:25:19.110Z,95904.09
2023-01-01T08:27:45.801Z,95905.84
2023-01-01T08:30:15.508Z,95897.94
2023-01-01T08:32:42.444Z,95902.13
2023-01-01T08:35:09.686Z,95900.50
2023-01-01T08:37:36.450Z,95894.84
2023-01-01T08:40:03.310Z,95893.22
2023-01-01T08:42:29.923Z,95897.41
2023-01-01T08:44:56.632Z,95899.53
2023-01-01T08:47:25.776Z,95900.81
2023-01-01T08:49:52.681Z,95901.13
2023-01-01T08:52:19.752Z,95909.84
2023-01-01T08:54:46.311Z,95903.75
2023-01-01T08:57:13.222Z,95914.06
2023-01-01T08:59:39.767Z,95911.78
2023-01-01T09:02:07.320Z,95916.63
2023-01-01T09:04:34.384Z,95912.47
2023-01-01T09:07:00.992Z,95906.47
2023-01-01T09:09:31.701Z,95916.31
2023-01-01T09:12:04.312Z,95913.25
2023-01-01T09:14:31.071Z,95916.00
2023-01-01T09:16:57.850Z,95921.81
2023-01-01T09:19:24.430Z,95937.78
2023-01-01T09:21:56.320Z,95939.38
2023-01-01T09:24:23.153Z,95950.53
2023-01-01T09:26:50.194Z,95953.75
2023-01-01T09:29:18.654Z,95957.00
2023-01-01T09:31:45.586Z,95962.31
2023-01-01T09:34:12.754Z,95951.03
2023-01-01T09:36:39.723Z,95959.38
2023-01-01T09:39:06.566Z,95967.31
2023-01-01T09:41:48.165Z,95958.94
2023-01-01T09:44:48.895Z,95962.16
2023-01-01T09:47:40.567Z,95962.97
2023-01-01T09:50:19.316Z,95966.03
2023-01-01T09:53:01.583Z,95975.25
2023-01-01T09:55:54.096Z,95985.31
2023-01-01T09:58:25.317Z,95975.31
2023-01-01T10:00:54.791Z,95970.00
2023-01-01T10:03:28.096Z,95981.47
2023-01-01T10:06:16.425Z,95981.97
2023-01-01T10:08:48.559Z,95971.47
2023-01-01T10:11:37.388Z,95979.56
2023-01-01T10:14:30.949Z,95974.41
2023-01-01T10:17:01.525Z,95961.50
2023-01-01T10:19:37.792Z,95960.06
2023-01-01T10:22:09.247Z,95966.97
2023-01-01T10:24:47.162Z,95968.38
2023-01-01T10:27:26.456Z,95950.47
2023-01-01T10:29:56.845Z,95943.38
2023-01-01T10:32:35.443Z,95939.69
2023-01-01T10:35:10.567Z,95934.53
2023-01-01T10:37:38.106Z,95931.31
2023-01-01T10:40:29.236Z,95936.50
2023-01-01T10:42:58.227Z,95925.50
2023-01-01T10:45:32.850Z,95930.38
2023-01-01T10:48:20.497Z,95924.41
2023-01-01T10:50:53.123Z,95921.69
2023-01-01T10:53:37.812Z,95914.25
2023-01-01T10:56:11.807Z,95913.28
2023-01-01T10:58:41.488Z,95917.22
2023-01-01T11:01:11.653Z,95910.72
2023-01-01T11:03:52.573Z,95919.59
2023-01-01T11:06:33.626Z,95917.66
2023-01-01T11:09:06.947Z,95917.81
2023-01-01T11:11:45.228Z,95920.88
2023-01-01T11:14:25.668Z,95923.31
2023-01-01T11:16:53.533Z,95932.19
2023-01-01T11:19:32.052Z,95934.47
2023-01-01T11:21:59.833Z,95932.50
2023-01-01T11:24:29.283Z,95925.72
2023-01-01T11:27:22.025Z,95935.59
2023-01-01T11:29:49.085Z,95930.09
2023-01-01T11:32:21.042Z,95931.56
2023-01-01T11:35:02.993Z,95924.91
2023-01-01T11:37:36.126Z,95926.00
2023-01-01T11:40:04.531Z,95933.59
2023-01-01T11:42:35.567Z,95923.94
2023-01-01T11:45:11.408Z,95931.66
2023-01-01T11:47:43.420Z,95926.00
2023-01-01T11:50:36.675Z,95917.75
2023-01-01T11:53:22.738Z,95921.44
2023-01-01T11:55:55.023Z,95913.84
2023-01-01T11:58:30.519Z,95918.84
2023-01-01T12:01:03.822Z,95923.69
2023-01-01T12:03:47.179Z,95925.66
2023-01-01T12:06:23.639Z,95920.97
2023-01-01T12:09:02.212Z,95915.94
2023-01-01T12:11:41.734Z,95910.13
2023-01-01T12:14:30.917Z,95906.88
2023-01-01T12:17:05.571Z,95900.75
2023-01-01T12:19:45.076Z,95902.38
2023-01-01T12:22:19.341Z,95908.38
2023-01-01T12:24:48.764Z,95901.63
2023-01-01T12:27:57.671Z,95901.16
2023-01-01T12:30:32.324Z,95896.50
2023-01-01T12:33:22.551Z,95903.75
2023-01-01T12:36:16.503Z,95889.19
2023-01-01T12:38:52.118Z,95890.66
2023-01-01T12:41:53.492Z,95897.47
2023-01-01T12:44:41.814Z,95894.53
2023-01-01T12:47:29.471Z,95893.88
2023-01-01T12:50:08.274Z,95892.78
2023-01-01T12:52:52.108Z,95889.72
2023-01-01T12:55:47.381Z,95889.72
2023-01-01T12:58:38.693Z,95887.63
2023-01-01T13:01:22.342Z,95879.22
2023-01-01T13:03:49.165Z,95880.69
2023-01-01T13:06:24.887Z,95885.88
2023-01-01T13:09:02.498Z,95882.47
2023-01-01T13:11:29.414Z,95887.13
2023-01-01T13:13:55.959Z,95866.66
2023-01-01T13:16:38.701Z,95868.72
2023-01-01T13:19:05.856Z,95864.22
2023-01-01T13:21:32.711Z,95861.97
2023-01-01T13:24:19.730Z,95867.63
2023-01-01T13:26:46.983Z,95869.06
2023-01-01T13:29:13.443Z,95869.53
2023-01-01T13:31:42.983Z,95868.72
2023-01-01T13:34:31.548Z,95863.22
2023-01-01T13:37:10.165Z,95864.84
2023-01-01T13:40:24.124Z,95869.84
2023-01-01T13:42:57.397Z,95855.00
2023-01-01T13:48:47.149Z,95863.56
2023-01-01T13:54:41.642Z,95846.91
2023-01-01T13:57:37.372Z,95842.22
2023-01-01T14:00:23.297Z,95846.44
2023-01-01T14:03:01.850Z,95843.19
2023-01-01T14:05:36.280Z,95832.53
2023-01-01T14:08:06.233Z,95838.66
2023-01-01T14:10:37.212Z,95845.44
2023-01-01T14:13:06.860Z,95838.97
2023-01-01T14:15:36.744Z,95842.84
2023-01-01T14:18:11.043Z,95846.34
2023-01-01T14:20:46.430Z,95849.09
2023-01-01T14:23:23.442Z,95859.41
2023-01-01T14:25:50.461Z,95848.44
2023-01-01T14:28:25.717Z,95860.22
2023-01-01T14:30:53.695Z,95848.28
2023-01-01T14:33:29.286Z,95847.28
2023-01-01T14:35:58.809Z,95856.47
2023-01-01T14:38:30.732Z,95858.72
2023-01-01T14:41:15.846Z,95855.00
2023-01-01T14:43:45.671Z,95841.91
2023-01-01T14:46:27.528Z,95852.72
2023-01-01T14:49:00.302Z,95858.81
2023-01-01T14:51:29.453Z,95853.16
2023-01-01T14:53:59.566Z,95847.69
2023-01-01T14:56:30.732Z,95846.88
2023-01-01T14:59:24.404Z,95844.13
2023-01-01T15:02:15.647Z,95846.22
2023-01-01T15:04:43.049Z,95849.28
2023-01-01T15:07:38.959Z,95852.84
2023-01-01T15:10:05.903Z,95843.94
2023-01-01T15:12:34.678Z,95837.47
2023-01-01T15:15:01.783Z,95825.88
2023-01-01T15:17:28.361Z,95821.03
2023-01-01T15:20:19.484Z,95821.03
2023-01-01T15:22:46.272Z,95812.91
2023-01-01T15:25:16.121Z,95797.91
2023-01-01T15:27:44.501Z,95787.78
2023-01-01T15:30:23.035Z,95797.44
2023-01-01T15:32:49.807Z,95797.44
2023-01-01T15:35:31.201Z,95803.72
2023-01-01T15:38:10.386Z,95813.06
2023-01-01T15:40:36.980Z,95797.91
2023-01-01T15:43:03.499Z,95792.44
2023-01-01T15:45:41.201Z,95788.22
2023-01-01T15:48:25.428Z,95796.13
2023-01-01T15:50:51.942Z,95790.66
2023-01-01T15:53:27.555Z,95786.00
2023-01-01T15:56:02.621Z,95786.81
2023-01-01T15:58:35.746Z,95791.78
2023-01-01T16:01:05.917Z,95788.34
2023-01-01T16:03:36.026Z,95788.06
2023-01-01T16:06:02.873Z,95785.31
2023-01-01T16:08:29.512Z,95787.59
2023-01-01T16:10:56.114Z,95776.00
2023-01-01T16:13:22.699Z,95784.22
2023-01-01T16:15:53.728Z,95776.97
2023-01-01T16:18:28.760Z,95777.53
2023-01-01T16:20:56.132Z,95778.97
2023-01-01T16:23:22.778Z,95781.19
2023-01-01T16:25:49.313Z,95781.66
2023-01-01T16:28:16.091Z,95787.16
2023-01-01T16:30:43.957Z,95780.84
2023-01-01T16:33:19.419Z,95763.31
2023-01-01T16:35:46.592Z,95764.28
2023-01-01T16:38:13.156Z,95759.94
2023-01-01T16:40:39.798Z,95758.81
2023-01-01T16:43:09.732Z,95752.84
2023-01-01T16:45:36.690Z,95759.44
2023-01-01T16:48:03.275Z,95766.53
2023-01-01T16:50:29.826Z,95759.44
2023-01-01T16:52:56.451Z,95766.53
2023-01-01T16:55:23.022Z,95758.81
2023-01-01T16:57:49.644Z,95763.31
2023-01-01T17:00:16.609Z,95749.59
2023-01-01T17:02:43.328Z,95752.03
2023-01-01T17:05:10.946Z,95757.19
2023-01-01T17:07:37.503Z,95749.59
2023-01-01T17:10:04.852Z,95742.69
2023-01-01T17:12:31.993Z,95730.94
2023-01-01T17:14:58.581Z,95732.44
2023-01-01T17:17:25.195Z,95720.06
2023-01-01T17:19:51.819Z,95709.38
2023-01-01T17:22:18.450Z,95708.72
2023-01-01T17:24:45.059Z,95701.63
2023-01-01T17:27:11.639Z,95703.88
2023-01-01T17:29:38.153Z,95700.97
2023-01-01T17:32:05.062Z,95701.00
2023-01-01T17:34:31.576Z,95694.72
2023-01-01T17:36:58.209Z,95690.72
2023-01-01T17:39:24.809Z,95688.59
2023-01-01T17:41:51.365Z,95687.78
2023-01-01T17:44:18.216Z,95688.44
2023-01-01T17:46:44.922Z,95695.03
2023-01-01T17:49:11.665Z,95687.44
2023-01-01T17:51:39.490Z,95682.94
2023-01-01T17:54:10.207Z,95674.72
2023-01-01T17:56:36.792Z,95678.28
2023-01-01T17:59:03.470Z,95680.22
2023-01-01T18:01:32.280Z,95674.25
2023-01-01T18:04:01.934Z,95678.47
2023-01-01T18:06:30.371Z,95678.97
2023-01-01T18:09:05.174Z,95671.41
2023-01-01T18:11:33.294Z,95659.50
2023-01-01T18:14:02.013Z,95663.34
2023-01-01T18:16:30.200Z,95659.50
2023-01-01T18:19:00.965Z,95665.97
2023-01-01T18:21:27.830Z,95655.50
2023-01-01T18:23:56.692Z,95651.97
2023-01-01T18:26:26.334Z,95645.19
2023-01-01T18:28:54.667Z,95638.75
2023-01-01T18:31:23.202Z,95633.91
2023-01-01T18:33:50.646Z,95624.38
2023-01-01T18:36:20.127Z,95626.16
2023-01-01T18:38:58.904Z,95626.31
2023-01-01T18:41:31.596Z,95618.59
2023-01-01T18:44:00.141Z,95618.75
2023-01-01T18:46:29.290Z,95607.78
2023-01-01T18:48:59.414Z,95614.22
2023-01-01T18:51:26.327Z,95606.31
2023-01-01T18:53:58.533Z,95611.81
2023-01-01T18:56:25.789Z,95604.06
2023-01-01T18:58:56.659Z,95592.78
2023-01-01T19:01:24.606Z,95599.38
2023-01-01T19:03:55.169Z,95600.84
2023-01-01T19:06:27.392Z,95599.69
2023-01-01T19:09:25.292Z,95594.22
2023-01-01T19:11:56.191Z,95587.59
2023-01-01T19:14:25.230Z,95589.69
2023-01-01T19:16:56.240Z,95583.25
2023-01-01T19:19:25.014Z,95583.25
2023-01-01T19:22:01.695Z,95574.50
2023-01-01T19:24:31.432Z,95584.53
2023-01-01T19:27:15.206Z,95579.53
2023-01-01T19:29:45.290Z,95571.44
2023-01-01T19:32:12.003Z,95568.38
2023-01-01T19:34:39.818Z,95569.66
2023-01-01T19:37:07.827Z,95566.59
2023-01-01T19:39:35.224Z,95558.84
2023-01-01T19:42:07.046Z,95556.28
2023-01-01T19:44:35.902Z,95563.84
2023-01-01T19:47:05.060Z,95566.59
2023-01-01T19:49:32.393Z,95566.59
2023-01-01T19:51:58.997Z,95564.47
2023-01-01T19:54:26.822Z,95564.81
2023-01-01T19:56:53.534Z,95568.31
2023-01-01T19:59:20.315Z,95565.09
2023-01-01T20:01:57.656Z,95560.75
2023-01-01T20:04:33.467Z,95562.50
2023-01-01T20:07:00.048Z,95561.72
2023-01-01T20:09:26.539Z,95557.03
2023-01-01T20:11:53.119Z,95564.78
2023-01-01T20:14:19.701Z,95561.72
2023-01-01T20:16:47.269Z,95568.31
2023-01-01T20:19:13.826Z,95559.78
2023-01-01T20:21:59.337Z,95566.72
2023-01-01T20:24:25.852Z,95567.66
2023-01-01T20:26:52.371Z,95560.25
2023-01-01T20:29:21.923Z,95560.56
2023-01-01T20:31:51.179Z,95572.19
2023-01-01T20:34:17.951Z,95562.66
2023-01-01T20:37:03.185Z,95566.53
2023-01-01T20:39:29.944Z,95564.41
2023-01-01T20:41:56.781Z,95565.50
2023-01-01T20:44:23.493Z,95563.72
2023-01-01T20:46:50.092Z,95566.75
2023-01-01T20:49:20.323Z,95570.13
2023-01-01T20:51:49.734Z,95563.78
2023-01-01T20:54:16.291Z,95562.31
2023-01-01T20:56:42.918Z,95557.63
2023-01-01T20:59:33.423Z,95553.25
2023-01-01T21:01:59.805Z,95550.78
2023-01-01T21:04:26.672Z,95560.63
2023-01-01T21:06:53.276Z,95558.72
2023-01-01T21:09:19.791Z,95550.41
2023-01-01T21:11:46.689Z,95561.41
2023-01-01T21:14:13.363Z,95558.53
2023-01-01T21:16:43.216Z,95545.72
2023-01-01T21:19:10.424Z,95558.19
2023-01-01T21:21:47.118Z,95548.34
2023-01-01T21:24:24.916Z,95553.31
2023-01-01T21:27:00.051Z,95549.88
2023-01-01T21:29:32.262Z,95557.81
2023-01-01T21:32:21.992Z,95551.25
2023-01-01T21:34:50.567Z,95538.78
2023-01-01T21:37:48.344Z,95554.13
2023-01-01T21:40:33.031Z,95552.06
2023-01-01T21:43:13.214Z,95539.09
2023-01-01T21:45:43.840Z,95536.34
2023-01-01T21:48:23.900Z,95538.75
2023-01-01T21:50:52.067Z,95540.34
2023-01-01T21:53:22.039Z,95547.59
2023-01-01T21:55:54.626Z,95547.78
2023-01-01T21:58:51.215Z,95539.22
2023-01-01T22:01:30.416Z,95542.69
2023-01-01T22:04:19.894Z,95548.09
2023-01-01T22:06:51.188Z,95543.75
2023-01-01T22:09:22.413Z,95548.44
2023-01-01T22:11:51.037Z,95546.97
2023-01-01T22:14:20.862Z,95552.13
2023-01-01T22:16:52.263Z,95546.16
2023-01-01T22:19:21.734Z,95550.66
2023-01-01T22:21:49.399Z,95555.00
2023-01-01T22:24:26.286Z,95565.75
2023-01-01T22:26:52.918Z,95556.09
2023-01-01T22:29:24.586Z,95548.78
2023-01-01T22:32:21.523Z,95564.34
2023-01-01T22:34:48.799Z,95562.19
2023-01-01T22:37:21.978Z,95550.41
2023-01-01T22:39:49.910Z,95560.94
2023-01-01T22:42:18.691Z,95547.31
2023-01-01T22:44:54.739Z,95554.06
2023-01-01T22:47:21.496Z,95545.78
2023-01-01T22:49:52.602Z,95552.88
2023-01-01T22:52:19.174Z,95550.81
2023-01-01T22:54:45.731Z,95553.97
2023-01-01T22:57:12.300Z,95567.03
2023-01-01T22:59:38.841Z,95571.06
2023-01-01T23:02:06.692Z,95565.91
2023-01-01T23:04:33.482Z,95557.81
2023-01-01T23:07:00.549Z,95559.47
2023-01-01T23:09:27.332Z,95551.94
2023-01-01T23:11:55.158Z,95558.91
2023-01-01T23:14:40.425Z,95561.84
2023-01-01T23:17:07.236Z,95561.56
2023-01-01T23:19:33.955Z,95565.84
2023-01-01T23:22:03.879Z,95569.25
2023-01-01T23:24:31.497Z,95546.53
2023-01-01T23:27:00.122Z,95554.44
2023-01-01T23:29:30.723Z,95540.63
2023-01-01T23:31:57.933Z,95544.78
2023-01-01T23:34:24.814Z,95538.16
2023-01-01T23:36:53.866Z,95530.06
2023-01-01T23:39:20.385Z,95535.00
2023-01-01T23:41:47.313Z,95531.66
2023-01-01T23:44:13.827Z,95537.69
2023-01-01T23:46:40.646Z,95536.22
2023-01-01T23:49:08.021Z,95544.78
2023-01-01T23:51:35.408Z,95530.13
2023-01-01T23:54:02.111Z,95545.19
2023-01-01T23:56:28.648Z,95542.09
2023-01-01T23:58:55.244Z,95535.94
